Terminal Aerodrome Forecast
Issued by NWS

Home | Current Version | Previous Version | Text Only | Print | Product List | Glossary On
Versions: 1 2 3 4 5 6 7 8 9 10 11 12 13 14 15 16 17 18 19 20
000
FTUS43 KDTX 180520
TAFPTK
TAF
KPTK 180520Z 1806/1906 27008KT 5SM -RA BR OVC007
     FM180800 26007KT 2SM -DZ BR OVC005
     FM181200 28006KT 6SM BR OVC012
     FM182100 24008KT P6SM BKN015 OVC025
     FM190300 22007KT P6SM SCT025 BKN035=

USA.gov is the U.S. government's official web portal to all federal, state and local government web resources and services.